Time;durP1;ratioP1;P1;durP2;ratioP2;P2;SDS_P1;SDS_P2;PMS_P1;PMS_P2;Temp;Humidity;BMP_temperature;BMP_pressure;BME280_temperature;BME280_humidity;BME280_pressure;Samples;Min_cycle;Max_cycle;Signal;HPM_P1;HPM_P2
2022/07/07 00:00:34;;;;;;;3.27;2.60;;;;;;;19.74;46.18;99378.34;7033076;28;20266;-80
2022/07/07 00:03:58;;;;;;;2.77;2.57;;;;;;;20.01;45.42;99386.69;7032982;28;20302;-79
2022/07/07 00:07:20;;;;;;;3.07;2.77;;;;;;;19.67;46.39;99383.19;7032599;28;20688;-80
2022/07/07 00:10:41;;;;;;;4.13;2.70;;;;;;;19.53;47.05;99375.56;7032626;28;20310;-80
2022/07/07 00:14:07;;;;;;;2.90;2.63;;;;;;;19.73;46.13;99373.13;7024532;28;20274;-80
2022/07/07 00:17:28;;;;;;;3.90;2.77;;;;;;;19.66;46.90;99372.47;7032267;28;20212;-80
2022/07/07 00:20:51;;;;;;;3.17;2.40;;;;;;;19.73;46.75;99373.13;7032270;28;20212;-79
2022/07/07 00:24:13;;;;;;;2.97;2.50;;;;;;;19.86;46.12;99381.81;7031298;28;20261;-79
2022/07/07 00:27:34;;;;;;;9.37;2.80;;;;;;;19.79;46.00;99380.34;7032071;28;20289;-80
2022/07/07 00:30:56;;;;;;;3.60;2.63;;;;;;;19.83;46.12;99381.50;7011277;28;20284;-80
2022/07/07 00:34:17;;;;;;;2.87;2.67;;;;;;;19.75;46.58;99377.28;7004188;28;20290;-80
2022/07/07 00:37:40;;;;;;;3.10;2.80;;;;;;;19.79;46.69;99378.44;7003990;28;20288;-80
2022/07/07 00:41:02;;;;;;;4.13;2.70;;;;;;;19.92;46.13;99378.09;7004096;28;20213;-80
2022/07/07 00:44:24;;;;;;;5.67;2.70;;;;;;;19.54;46.54;99337.00;7003667;28;20259;-80
2022/07/07 00:47:45;;;;;;;3.60;2.60;;;;;;;19.73;46.78;99370.38;7002899;28;20306;-80
2022/07/07 00:51:10;;;;;;;6.87;3.10;;;;;;;19.61;46.75;99361.44;7003637;28;20305;-80
2022/07/07 00:54:33;;;;;;;3.47;3.17;;;;;;;19.45;47.14;99360.38;7003344;28;20363;-80
2022/07/07 00:57:54;;;;;;;4.40;2.60;;;;;;;19.69;46.77;99358.31;7003197;28;20217;-80
2022/07/07 01:01:16;;;;;;;3.87;2.93;;;;;;;19.77;46.69;99361.47;7003468;28;20288;-80
2022/07/07 01:04:37;;;;;;;3.80;2.90;;;;;;;19.81;45.95;99350.84;7004131;28;20246;-79
2022/07/07 01:08:00;;;;;;;3.67;2.50;;;;;;;19.77;46.14;99341.47;7003170;28;20252;-80
2022/07/07 01:11:23;;;;;;;3.73;2.97;;;;;;;19.37;46.82;99349.84;7004062;28;20209;-80
2022/07/07 01:14:45;;;;;;;5.13;3.63;;;;;;;19.63;46.52;99351.91;7003453;28;20226;-80
2022/07/07 01:18:07;;;;;;;3.53;3.20;;;;;;;19.62;47.07;99336.59;7003017;28;20237;-80
2022/07/07 01:21:31;;;;;;;3.03;2.80;;;;;;;19.72;46.83;99342.22;7003795;28;20205;-80
2022/07/07 01:24:54;;;;;;;3.90;3.10;;;;;;;19.95;46.24;99343.91;7002600;28;20308;-80
2022/07/07 01:28:15;;;;;;;6.60;2.50;;;;;;;19.63;46.50;99315.53;7003276;28;20627;-80
2022/07/07 01:31:39;;;;;;;3.40;3.10;;;;;;;19.83;45.93;99335.81;7004250;28;20303;-80
2022/07/07 01:35:00;;;;;;;2.50;2.30;;;;;;;19.80;45.73;99321.81;7002960;28;20390;-80
2022/07/07 01:38:22;;;;;;;3.20;2.90;;;;;;;19.60;46.70;99333.28;7003562;28;20243;-79
2022/07/07 01:41:45;;;;;;;4.53;2.60;;;;;;;19.63;46.54;99330.03;7025947;28;20201;-80
2022/07/07 01:45:07;;;;;;;3.50;3.00;;;;;;;19.53;47.10;99309.91;7043702;28;20240;-80
2022/07/07 01:48:29;;;;;;;4.80;2.60;;;;;;;19.23;48.52;99323.91;7045830;28;20748;-80
2022/07/07 01:51:51;;;;;;;3.50;2.90;;;;;;;19.06;48.63;99300.34;7030758;28;20300;-80
2022/07/07 01:55:12;;;;;;;5.27;2.97;;;;;;;19.04;48.73;99299.78;7029834;28;20675;-80
2022/07/07 01:58:36;;;;;;;3.27;2.80;;;;;;;19.28;48.14;99312.25;7029250;28;20261;-80
2022/07/07 02:01:57;;;;;;;3.33;3.03;;;;;;;19.64;47.40;99314.47;7029728;28;20216;-80
2022/07/07 02:05:19;;;;;;;4.53;3.40;;;;;;;19.60;46.56;99255.84;7029521;28;20222;-80
2022/07/07 02:08:40;;;;;;;3.30;3.00;;;;;;;19.91;46.88;99308.00;7028986;28;20296;-79
2022/07/07 02:12:02;;;;;;;4.90;2.80;;;;;;;20.11;45.71;99299.28;7029597;28;20663;-80
2022/07/07 02:15:25;;;;;;;3.70;2.50;;;;;;;20.18;45.52;99303.50;7029917;28;20233;-80
2022/07/07 02:18:48;;;;;;;3.13;2.83;;;;;;;20.20;45.16;99298.56;7029128;28;20300;-80
2022/07/07 02:22:09;;;;;;;4.30;2.60;;;;;;;20.31;45.10;99299.53;7029550;28;20661;-80
2022/07/07 02:25:31;;;;;;;2.97;2.60;;;;;;;20.29;44.93;99307.97;7029245;28;20217;-80
2022/07/07 02:28:53;;;;;;;3.03;2.73;;;;;;;20.46;44.77;99307.94;7029286;28;20190;-80
2022/07/07 02:32:15;;;;;;;3.50;3.00;;;;;;;20.41;44.84;99310.59;7029397;28;20296;-80
2022/07/07 02:35:37;;;;;;;3.33;2.87;;;;;;;20.19;45.73;99316.09;7029373;28;20264;-80
2022/07/07 02:38:58;;;;;;;3.83;2.83;;;;;;;20.36;44.95;99302.31;7028939;28;20234;-80
2022/07/07 02:42:20;;;;;;;5.53;2.90;;;;;;;20.49;44.76;99318.38;7029770;28;20348;-80
2022/07/07 02:45:42;;;;;;;4.07;2.77;;;;;;;20.07;45.23;99296.22;7030992;28;20739;-80
2022/07/07 02:49:04;;;;;;;3.30;3.00;;;;;;;20.13;45.86;99305.31;7034267;28;20303;-80
2022/07/07 02:52:26;;;;;;;3.60;3.00;;;;;;;20.04;45.64;99307.63;7034217;28;20205;-79
2022/07/07 02:55:48;;;;;;;3.33;2.80;;;;;;;20.03;45.65;99292.28;7033768;28;20225;-80
2022/07/07 02:59:10;;;;;;;3.40;2.83;;;;;;;20.21;45.55;99307.59;7033654;28;20293;-80
2022/07/07 03:02:32;;;;;;;4.20;3.40;;;;;;;20.06;46.06;99311.00;7033643;28;20370;-79
2022/07/07 03:05:54;;;;;;;3.07;2.77;;;;;;;20.21;45.74;99313.06;7035207;28;20212;-80
2022/07/07 03:09:16;;;;;;;4.63;2.60;;;;;;;20.60;44.64;99314.66;7034608;28;20282;-80
2022/07/07 03:12:38;;;;;;;4.57;2.70;;;;;;;20.64;44.52;99302.09;7036069;28;20255;-80
2022/07/07 03:15:59;;;;;;;6.13;2.73;;;;;;;20.43;45.43;99308.44;7035849;28;20314;-80
2022/07/07 03:19:21;;;;;;;4.53;2.80;;;;;;;20.38;45.25;99291.94;7035228;28;20239;-80
2022/07/07 03:22:44;;;;;;;5.67;2.90;;;;;;;20.28;45.92;99295.38;7035486;28;20255;-80
2022/07/07 03:26:05;;;;;;;3.27;2.80;;;;;;;20.12;45.70;99301.78;7035734;28;20688;-80
2022/07/07 03:29:27;;;;;;;6.63;2.90;;;;;;;19.74;47.09;99285.31;7034969;28;20280;-79
2022/07/07 03:32:48;;;;;;;6.27;2.97;;;;;;;19.94;46.41;99284.78;7036079;28;20304;-80
2022/07/07 03:36:10;;;;;;;3.80;2.40;;;;;;;20.48;45.23;99286.56;7035657;28;20572;-80
2022/07/07 03:39:33;;;;;;;4.37;2.70;;;;;;;20.37;45.63;99280.16;7032055;28;23048;-80
2022/07/07 03:42:54;;;;;;;8.63;3.00;;;;;;;20.69;44.43;99275.56;7032714;28;20219;-80
2022/07/07 03:46:16;;;;;;;4.40;2.50;;;;;;;20.75;43.86;99268.25;7035690;28;20747;-80
2022/07/07 03:49:37;;;;;;;3.67;2.60;;;;;;;20.63;44.19;99256.63;7035183;28;20665;-80
2022/07/07 03:52:59;;;;;;;2.80;2.60;;;;;;;20.47;44.74;99252.91;7036272;28;20268;-80
2022/07/07 03:56:22;;;;;;;2.93;2.07;;;;;;;20.45;44.65;99237.81;7035635;28;20234;-80
2022/07/07 03:59:43;;;;;;;4.93;2.90;;;;;;;20.45;45.02;99244.09;7035072;28;20282;-80
2022/07/07 04:03:05;;;;;;;2.40;2.20;;;;;;;20.91;43.39;99265.41;7035088;28;20231;-79
2022/07/07 04:06:30;;;;;;;4.03;2.40;;;;;;;20.96;43.15;99256.41;7025213;28;20242;-80
2022/07/07 04:09:51;;;;;;;3.30;2.67;;;;;;;20.55;43.87;99244.19;7019830;28;20216;-80
2022/07/07 04:13:14;;;;;;;3.07;2.73;;;;;;;20.53;44.45;99259.25;7051623;28;20225;-80
2022/07/07 04:16:36;;;;;;;2.50;2.30;;;;;;;20.50;44.59;99265.22;7042350;28;20227;-80
2022/07/07 04:19:58;;;;;;;5.00;2.70;;;;;;;20.89;43.92;99264.84;7010194;28;20207;-79
2022/07/07 04:23:20;;;;;;;5.67;2.43;;;;;;;21.18;43.15;99266.22;7006400;28;20607;-80
2022/07/07 04:26:41;;;;;;;2.43;2.10;;;;;;;21.25;42.97;99258.59;7023071;28;20658;-80
2022/07/07 04:30:05;;;;;;;4.47;2.30;;;;;;;21.19;43.35;99270.59;7023200;28;20662;-80
2022/07/07 04:33:27;;;;;;;3.33;2.40;;;;;;;21.33;42.80;99251.78;7032642;28;20228;-80
2022/07/07 04:36:48;;;;;;;3.87;2.30;;;;;;;21.34;42.78;99255.09;7008150;28;20260;-80
2022/07/07 04:40:10;;;;;;;3.57;2.60;;;;;;;21.39;42.24;99265.25;7016106;28;20308;-80
2022/07/07 04:43:32;;;;;;;6.37;2.40;;;;;;;21.53;41.71;99261.00;7025959;28;20262;-80
2022/07/07 04:46:55;;;;;;;5.70;2.40;;;;;;;21.61;41.17;99257.72;7027076;28;20287;-79
2022/07/07 04:50:16;;;;;;;4.83;2.13;;;;;;;21.55;41.67;99254.13;7003641;28;20305;-79
2022/07/07 04:53:38;;;;;;;2.47;2.10;;;;;;;21.75;40.98;99251.53;7011909;28;20226;-80
2022/07/07 04:56:59;;;;;;;3.23;2.07;;;;;;;21.69;41.31;99249.03;7032796;28;20291;-80
2022/07/07 05:00:21;;;;;;;2.53;2.10;;;;;;;22.08;40.71;99250.34;7032099;28;20229;-80
2022/07/07 05:03:44;;;;;;;2.73;2.50;;;;;;;21.94;40.95;99238.16;7020521;28;20281;-80
2022/07/07 05:07:05;;;;;;;3.27;2.30;;;;;;;22.15;40.46;99249.00;7032563;28;20206;-79
2022/07/07 05:10:27;;;;;;;3.03;2.07;;;;;;;22.60;38.95;99237.34;7031452;28;20218;-79
2022/07/07 05:13:49;;;;;;;2.47;2.20;;;;;;;21.65;40.69;99224.00;7024966;28;20236;-79
2022/07/07 05:17:10;;;;;;;5.67;2.30;;;;;;;22.62;39.58;99241.47;7026204;28;20255;-79
2022/07/07 05:20:33;;;;;;;5.13;2.10;;;;;;;23.40;38.10;99237.38;7011381;28;20236;-79
2022/07/07 05:23:55;;;;;;;5.23;2.00;;;;;;;23.56;37.07;99219.75;7005990;28;20267;-79
2022/07/07 05:27:16;;;;;;;5.10;2.47;;;;;;;23.12;38.29;99240.69;7005157;28;20271;-81
2022/07/07 05:30:38;;;;;;;2.80;2.50;;;;;;;23.01;39.22;99204.09;7026125;28;20288;-79
2022/07/07 05:33:59;;;;;;;3.23;2.50;;;;;;;23.57;37.62;99263.53;7022083;28;20249;-79
2022/07/07 05:37:22;;;;;;;5.33;2.03;;;;;;;24.01;37.00;99239.75;7015802;28;20366;-80
2022/07/07 05:40:44;;;;;;;2.80;2.30;;;;;;;23.78;37.63;99248.59;7025998;28;20199;-79
2022/07/07 05:44:05;;;;;;;4.43;2.27;;;;;;;24.03;37.01;99236.72;7030063;28;20227;-78
2022/07/07 05:47:27;;;;;;;2.90;2.60;;;;;;;23.53;39.03;99232.13;7031087;28;20255;-78
2022/07/07 05:50:48;;;;;;;4.17;2.13;;;;;;;23.49;38.69;99231.03;7030146;28;20234;-79
2022/07/07 05:54:11;;;;;;;8.00;2.67;;;;;;;23.17;39.43;99227.78;7031061;28;20360;-78
2022/07/07 05:57:33;;;;;;;4.93;2.20;;;;;;;23.37;38.51;99215.94;7016307;28;20230;-79
2022/07/07 06:00:54;;;;;;;3.97;2.53;;;;;;;23.17;38.99;99226.94;7013094;28;20306;-79
2022/07/07 06:04:16;;;;;;;4.00;2.10;;;;;;;23.04;39.82;99232.97;7002389;28;20721;-79
2022/07/07 06:07:37;;;;;;;3.77;2.20;;;;;;;23.27;39.35;99227.78;7006433;28;20594;-79
2022/07/07 06:11:00;;;;;;;2.63;2.17;;;;;;;23.77;39.13;99241.44;7030078;28;20207;-79
2022/07/07 06:14:22;;;;;;;5.73;2.10;;;;;;;24.53;37.54;99234.53;7029646;28;20248;-79
2022/07/07 06:17:43;;;;;;;4.87;2.10;;;;;;;24.79;36.83;99232.47;7029056;28;20248;-79
2022/07/07 06:21:05;;;;;;;4.67;2.07;;;;;;;25.01;36.52;99217.13;7034274;28;20217;-78
2022/07/07 06:24:27;;;;;;;2.23;1.93;;;;;;;25.18;35.53;99230.53;7027751;28;20249;-79
2022/07/07 06:27:50;;;;;;;3.93;2.30;;;;;;;24.90;35.77;99234.84;7007228;28;20745;-79
2022/07/07 06:31:12;;;;;;;4.37;2.20;;;;;;;25.36;34.84;99227.06;7018986;28;20197;-79
2022/07/07 06:34:33;;;;;;;3.80;2.20;;;;;;;24.98;35.53;99219.63;7035490;28;20303;-79
2022/07/07 06:37:56;;;;;;;3.00;1.80;;;;;;;25.08;36.05;99212.06;7035061;28;20278;-79
2022/07/07 06:41:18;;;;;;;5.00;2.30;;;;;;;25.69;34.89;99174.53;7035504;28;20211;-79
2022/07/07 06:44:41;;;;;;;5.77;1.90;;;;;;;26.15;34.08;99192.22;7030488;28;20303;-79
2022/07/07 06:48:03;;;;;;;4.77;2.07;;;;;;;25.00;34.80;99185.13;7007166;28;20202;-80
2022/07/07 06:51:24;;;;;;;5.03;2.20;;;;;;;26.63;33.25;99201.22;7007500;28;20214;-79
2022/07/07 06:54:46;;;;;;;2.67;1.93;;;;;;;26.20;33.29;99196.84;7007021;28;20226;-78
2022/07/07 06:58:08;;;;;;;4.33;2.10;;;;;;;26.29;33.48;99164.63;7006278;28;20226;-79
2022/07/07 07:01:31;;;;;;;2.90;2.00;;;;;;;26.56;33.57;99175.91;7007574;28;20207;-79
2022/07/07 07:04:52;;;;;;;5.53;2.33;;;;;;;25.66;34.33;99196.38;7007143;28;20230;-79
2022/07/07 07:08:14;;;;;;;2.70;2.00;;;;;;;25.45;35.79;99205.97;7006406;28;20237;-79
2022/07/07 07:11:35;;;;;;;2.83;2.27;;;;;;;25.32;35.69;99177.09;7007344;28;20596;-79
2022/07/07 07:14:57;;;;;;;3.97;2.07;;;;;;;26.04;34.55;99189.88;7032623;28;20300;-79
2022/07/07 07:18:20;;;;;;;2.87;1.80;;;;;;;25.81;35.06;99194.25;7034620;28;20212;-79
2022/07/07 07:21:42;;;;;;;4.07;1.83;;;;;;;26.35;33.86;99200.22;7032168;28;20617;-79
2022/07/07 07:25:04;;;;;;;3.70;2.30;;;;;;;26.00;34.89;99205.38;7013209;28;20432;-79
2022/07/07 07:28:25;;;;;;;2.00;1.80;;;;;;;26.16;34.91;99204.91;7030874;28;20229;-79
2022/07/07 07:31:47;;;;;;;6.47;2.17;;;;;;;26.16;35.53;99218.72;7023830;28;20218;-79
2022/07/07 07:35:10;;;;;;;5.20;2.13;;;;;;;25.47;36.26;99201.81;7020528;28;20270;-79
2022/07/07 07:38:31;;;;;;;6.77;2.60;;;;;;;25.75;35.61;99206.50;7006104;28;20211;-79
2022/07/07 07:41:53;;;;;;;4.10;2.00;;;;;;;26.72;34.12;99216.84;7009878;28;20292;-79
2022/07/07 07:45:15;;;;;;;4.87;2.20;;;;;;;26.03;35.06;99227.75;7006739;28;20634;-79
2022/07/07 07:48:36;;;;;;;4.60;2.53;;;;;;;25.80;35.69;99209.19;7005765;28;20202;-79
2022/07/07 07:51:59;;;;;;;5.17;2.77;;;;;;;25.84;35.44;99212.19;7027363;28;20225;-79
2022/07/07 07:55:22;;;;;;;7.30;2.47;;;;;;;25.99;35.52;99234.97;7034758;28;20284;-79
2022/07/07 07:58:43;;;;;;;4.83;2.30;;;;;;;25.52;35.90;99236.84;7023346;28;20214;-80
2022/07/07 08:02:05;;;;;;;5.10;2.60;;;;;;;25.64;37.75;99238.09;7031837;28;20210;-78
2022/07/07 08:05:26;;;;;;;3.37;2.30;;;;;;;25.75;36.50;99220.31;7015915;28;20763;-79
2022/07/07 08:08:49;;;;;;;4.17;2.30;;;;;;;25.55;36.33;99237.06;7014854;28;20201;-79
2022/07/07 08:12:11;;;;;;;4.53;2.27;;;;;;;25.70;35.39;99219.53;7006552;28;20204;-78
2022/07/07 08:15:33;;;;;;;4.70;2.20;;;;;;;25.49;35.22;99160.13;7011580;28;20228;-79
2022/07/07 08:18:54;;;;;;;5.50;2.40;;;;;;;25.69;35.16;99207.66;7004780;28;20295;-78
2022/07/07 08:22:16;;;;;;;4.73;2.10;;;;;;;25.85;35.56;99202.78;7015595;28;20630;-79
2022/07/07 08:25:39;;;;;;;4.80;2.10;;;;;;;26.01;35.49;99193.22;7014928;28;20293;-79
2022/07/07 08:29:00;;;;;;;3.00;2.00;;;;;;;25.61;35.93;99194.47;7013966;28;20213;-79
2022/07/07 08:32:22;;;;;;;7.67;2.50;;;;;;;25.57;37.90;99198.97;7007106;28;20645;-80
2022/07/07 08:35:44;;;;;;;3.50;2.30;;;;;;;24.68;42.13;99206.91;7007049;28;20261;-81
2022/07/07 08:39:05;;;;;;;5.40;3.47;;;;;;;24.84;41.49;99188.31;7005765;28;20241;-80
2022/07/07 08:42:28;;;;;;;6.53;3.47;;;;;;;25.34;39.82;99208.03;7006434;28;20554;-79
2022/07/07 08:45:50;;;;;;;8.63;3.13;;;;;;;25.40;41.37;99214.31;7006572;28;20221;-80
2022/07/07 08:49:12;;;;;;;2.73;2.40;;;;;;;24.56;41.43;99198.13;7032159;28;20210;-79
2022/07/07 08:52:34;;;;;;;6.30;2.60;;;;;;;25.11;41.25;99206.00;7035308;28;20213;-79
2022/07/07 08:55:56;;;;;;;5.70;2.20;;;;;;;25.58;39.26;99202.53;7038966;28;20224;-79
2022/07/07 08:59:19;;;;;;;3.73;2.43;;;;;;;25.14;39.26;99194.38;7035048;28;20788;-80
2022/07/07 09:02:40;;;;;;;6.03;2.57;;;;;;;24.97;39.61;99191.22;7034482;28;20309;-79
2022/07/07 09:06:02;;;;;;;7.63;2.40;;;;;;;25.03;39.81;99203.88;7033298;28;20212;-79
2022/07/07 09:09:39;;;;;;;3.47;2.47;;;;;;;25.09;38.99;99194.44;7033833;28;20300;-78
2022/07/07 09:13:01;;;;;;;6.20;2.13;;;;;;;25.05;38.76;99209.09;7033882;28;20747;-79
2022/07/07 09:16:24;;;;;;;5.33;2.43;;;;;;;25.31;38.65;99192.03;7034007;28;20271;-79
2022/07/07 09:19:58;;;;;;;4.10;2.70;;;;;;;25.32;38.95;99193.66;7034295;28;20266;-81
2022/07/07 09:23:20;;;;;;;6.10;3.10;;;;;;;24.46;40.77;99228.50;7030493;28;20772;-78
2022/07/07 09:26:43;;;;;;;4.33;2.93;;;;;;;24.65;39.96;99223.19;7032918;28;20204;-79
2022/07/07 09:30:05;;;;;;;6.67;2.83;;;;;;;24.47;40.98;99223.81;7033411;28;20218;-79
2022/07/07 09:33:28;;;;;;;7.17;2.90;;;;;;;24.90;40.35;99204.50;7026858;28;20247;-80
2022/07/07 09:40:29;;;;;;;2.73;2.27;;;;;;;24.94;40.54;99213.88;7010326;28;20204;-79
2022/07/07 09:43:53;;;;;;;2.50;2.03;;;;;;;24.59;41.15;99219.63;7012684;28;20235;-78
2022/07/07 09:47:14;;;;;;;5.00;2.60;;;;;;;24.37;41.88;99218.38;7033420;28;20240;-79
2022/07/07 09:50:37;;;;;;;3.80;2.33;;;;;;;25.02;40.90;99213.25;7031169;28;20234;-78
2022/07/07 09:54:04;;;;;;;5.87;2.13;;;;;;;25.35;40.41;99219.88;7032408;28;20308;-78
2022/07/07 09:57:26;;;;;;;5.23;2.23;;;;;;;25.29;42.50;99232.06;7026882;28;20591;-78
2022/07/07 10:00:48;;;;;;;3.23;2.27;;;;;;;24.40;44.37;99235.16;7014978;28;20246;-78
2022/07/07 10:04:11;;;;;;;4.33;2.00;;;;;;;24.53;43.83;99204.19;7005302;28;20287;-79
2022/07/07 10:07:34;;;;;;;3.13;2.40;;;;;;;24.54;44.24;99246.41;7003859;28;20204;-78
2022/07/07 10:10:56;;;;;;;3.00;2.30;;;;;;;24.75;44.51;99246.00;7003417;28;20213;-79
2022/07/07 10:14:19;;;;;;;5.10;2.40;;;;;;;24.32;44.62;99266.09;7029379;28;20221;-78
2022/07/07 10:17:42;;;;;;;2.27;1.70;;;;;;;23.96;45.60;99267.31;7032700;28;20274;-79
2022/07/07 10:21:06;;;;;;;2.30;2.00;;;;;;;24.10;44.42;99268.38;7038840;28;20205;-78
2022/07/07 10:24:31;;;;;;;3.17;2.40;;;;;;;24.03;43.75;99273.38;7047531;28;20226;-79
2022/07/07 10:27:53;;;;;;;4.90;2.10;;;;;;;24.38;42.97;99272.38;7031973;28;20201;-79
2022/07/07 10:31:20;;;;;;;5.27;2.20;;;;;;;24.46;43.29;99264.34;7031046;28;20201;-79
2022/07/07 10:34:49;;;;;;;4.60;2.03;;;;;;;24.84;42.69;99265.53;7030937;28;20225;-79
2022/07/07 10:38:14;;;;;;;3.40;2.20;;;;;;;25.40;42.10;99267.59;7031276;28;20204;-79
2022/07/07 10:41:39;;;;;;;2.80;2.30;;;;;;;25.23;40.95;99239.56;7055400;28;20213;-79
2022/07/07 10:45:00;;;;;;;2.17;1.80;;;;;;;24.96;41.75;99249.47;7033564;28;20310;-79
2022/07/07 10:48:42;;;;;;;3.90;2.40;;;;;;;24.93;41.59;99256.38;7043546;28;20620;-80
2022/07/07 10:52:10;;;;;;;2.67;2.20;;;;;;;24.47;42.67;99254.97;7035578;28;20205;-79
2022/07/07 10:55:53;;;;;;;5.43;2.30;;;;;;;24.54;42.84;99266.50;7015743;28;20722;-80
2022/07/07 10:59:16;;;;;;;2.37;2.17;;;;;;;24.89;42.01;99257.25;7003544;28;20243;-79
2022/07/07 11:02:39;;;;;;;4.57;2.50;;;;;;;24.99;42.14;99262.66;7003427;28;20260;-80
2022/07/07 11:06:01;;;;;;;2.13;1.93;;;;;;;24.46;43.13;99256.06;7014382;28;20269;-79
2022/07/07 11:09:23;;;;;;;10.40;2.77;;;;;;;24.42;43.08;99256.94;7036561;28;20201;-79
2022/07/07 11:12:46;;;;;;;4.73;2.20;;;;;;;25.09;41.54;99243.28;7036478;28;20232;-80
2022/07/07 11:16:15;;;;;;;3.23;2.17;;;;;;;25.29;41.30;99257.75;7036762;28;20207;-80
2022/07/07 11:19:37;;;;;;;3.17;2.30;;;;;;;25.17;41.58;99251.75;7034575;28;20276;-81
2022/07/07 11:23:07;;;;;;;2.57;2.30;;;;;;;25.25;41.45;99247.59;7035097;28;20258;-80
2022/07/07 11:26:28;;;;;;;2.87;2.10;;;;;;;24.55;42.78;99248.84;7013396;28;20184;-79
2022/07/07 11:29:57;;;;;;;2.97;2.10;;;;;;;23.79;46.94;99280.53;7009496;28;20206;-79
2022/07/07 11:33:22;;;;;;;3.50;2.00;;;;;;;23.68;47.06;99276.19;7009286;28;20557;-79
2022/07/07 11:36:43;;;;;;;3.30;2.10;;;;;;;24.38;45.69;99272.38;7009190;28;20238;-79
2022/07/07 11:40:06;;;;;;;2.10;1.90;;;;;;;24.51;45.48;99266.25;7008960;28;20202;-80
2022/07/07 11:43:28;;;;;;;7.37;1.90;;;;;;;24.90;45.01;99269.91;7020700;28;20698;-79
2022/07/07 11:46:50;;;;;;;7.63;2.10;;;;;;;25.01;43.71;99235.63;7039967;28;20220;-80
2022/07/07 11:50:13;;;;;;;3.20;1.93;;;;;;;24.50;44.10;99265.44;7064995;28;20572;-80
2022/07/07 11:53:36;;;;;;;1.70;1.60;;;;;;;24.65;42.76;99253.53;7041797;28;20612;-79
2022/07/07 11:56:57;;;;;;;2.10;1.90;;;;;;;24.43;43.14;99277.88;7012227;28;20229;-79
2022/07/07 12:00:21;;;;;;;3.13;2.00;;;;;;;24.61;44.00;99269.78;7007377;28;20209;-79
2022/07/07 12:03:42;;;;;;;4.73;2.30;;;;;;;24.33;44.04;99276.00;7007277;28;20234;-79
2022/07/07 12:07:10;;;;;;;4.60;2.47;;;;;;;24.85;42.95;99269.94;7035445;28;20836;-79
2022/07/07 12:10:33;;;;;;;5.60;2.27;;;;;;;24.90;42.37;99267.16;7035631;28;20284;-80
2022/07/07 12:13:57;;;;;;;3.73;2.10;;;;;;;24.57;42.75;99270.66;7040679;28;20255;-79
2022/07/07 12:17:34;;;;;;;4.10;2.37;;;;;;;24.95;42.99;99276.22;7035526;28;20228;-79
2022/07/07 12:20:57;;;;;;;5.47;2.50;;;;;;;24.61;42.43;99219.34;7032332;28;20258;-79
2022/07/07 12:24:22;;;;;;;2.87;1.97;;;;;;;25.20;42.18;99253.94;7038149;28;20287;-79
2022/07/07 12:27:55;;;;;;;3.23;2.43;;;;;;;25.80;40.56;99261.69;7051059;28;20214;-80
2022/07/07 12:31:17;;;;;;;3.97;2.10;;;;;;;25.96;39.94;99257.66;7051814;28;20207;-79
2022/07/07 12:34:42;;;;;;;6.53;2.50;;;;;;;25.69;40.74;99248.25;7051974;28;20320;-79
2022/07/07 12:38:05;;;;;;;2.97;2.13;;;;;;;26.01;39.32;99263.13;7049707;28;20208;-79
2022/07/07 12:41:29;;;;;;;2.60;2.37;;;;;;;25.74;39.84;99271.16;7043227;28;20198;-79
2022/07/07 12:44:51;;;;;;;2.70;1.93;;;;;;;25.09;40.81;99233.06;7026268;28;20221;-80
2022/07/07 12:48:16;;;;;;;3.67;2.40;;;;;;;25.34;40.39;99249.44;7047660;28;20199;-79
2022/07/07 12:51:41;;;;;;;4.73;2.00;;;;;;;25.01;40.68;99265.97;7035086;28;20266;-79
2022/07/07 12:55:08;;;;;;;4.53;2.20;;;;;;;24.73;41.44;99244.66;7034643;28;20249;-79
2022/07/07 12:58:32;;;;;;;2.67;2.40;;;;;;;25.23;41.31;99261.66;7009635;28;20229;-79
2022/07/07 13:01:55;;;;;;;3.27;2.30;;;;;;;25.05;40.78;99251.31;7004512;28;20254;-79
2022/07/07 13:05:17;;;;;;;3.17;2.00;;;;;;;24.52;41.88;99273.41;7005192;28;20224;-79
2022/07/07 13:08:39;;;;;;;4.00;2.40;;;;;;;24.87;41.11;99273.22;7006022;28;20225;-80
2022/07/07 13:12:00;;;;;;;3.60;2.40;;;;;;;24.83;41.91;99274.94;7006092;28;20266;-79
2022/07/07 13:15:23;;;;;;;4.90;2.47;;;;;;;24.57;42.22;99260.47;7005823;28;20226;-79
2022/07/07 13:18:45;;;;;;;6.83;2.40;;;;;;;24.93;41.79;99266.56;7004200;28;20771;-79
2022/07/07 13:22:07;;;;;;;5.03;2.30;;;;;;;25.06;41.94;99271.44;7006039;28;20186;-80
2022/07/07 13:25:29;;;;;;;4.40;2.23;;;;;;;25.09;40.97;99276.38;7005374;28;20235;-78
2022/07/07 13:28:51;;;;;;;2.60;2.10;;;;;;;24.87;41.21;99254.75;7004704;28;20198;-79
2022/07/07 13:32:14;;;;;;;4.00;2.33;;;;;;;24.32;42.09;99292.81;7006505;28;20202;-79
2022/07/07 13:35:35;;;;;;;3.80;2.33;;;;;;;24.79;42.00;99280.16;7017005;28;20336;-79
2022/07/07 13:38:57;;;;;;;4.20;2.17;;;;;;;25.10;41.46;99265.06;7015754;28;20308;-79
2022/07/07 13:42:18;;;;;;;4.47;2.17;;;;;;;25.03;41.55;99294.09;7005151;28;20562;-79
2022/07/07 13:45:40;;;;;;;3.13;2.30;;;;;;;25.38;41.16;99291.09;7004424;28;20692;-79
2022/07/07 13:49:03;;;;;;;3.40;1.80;;;;;;;23.81;45.45;99327.09;7003701;28;20572;-79
2022/07/07 13:52:26;;;;;;;2.40;1.70;;;;;;;23.63;47.15;99322.16;7003446;28;20216;-78
2022/07/07 13:55:47;;;;;;;1.77;1.30;;;;;;;23.80;46.39;99328.19;7002732;28;20252;-79
2022/07/07 13:59:09;;;;;;;2.30;1.20;;;;;;;23.56;47.45;99332.63;7001300;28;20633;-78
2022/07/07 14:02:31;;;;;;;2.47;1.60;;;;;;;23.08;49.15;99335.88;7002230;28;20196;-79
2022/07/07 14:05:53;;;;;;;2.17;1.40;;;;;;;22.58;51.09;99295.31;7002420;28;20290;-79
2022/07/07 14:09:15;;;;;;;1.73;1.63;;;;;;;22.98;51.04;99347.69;7001609;28;20211;-79
2022/07/07 14:12:37;;;;;;;2.00;1.90;;;;;;;23.29;50.35;99329.31;7002090;28;20308;-78
2022/07/07 14:15:58;;;;;;;2.10;2.00;;;;;;;23.19;50.69;99357.63;7001547;28;20208;-78
2022/07/07 14:19:20;;;;;;;2.40;1.70;;;;;;;23.21;51.01;99351.88;7000632;28;20239;-78
2022/07/07 14:22:43;;;;;;;3.20;1.80;;;;;;;23.12;51.17;99354.28;7001531;28;20237;-79
2022/07/07 14:26:05;;;;;;;1.80;1.70;;;;;;;23.39;49.58;99362.34;7002121;28;20290;-78
2022/07/07 14:29:26;;;;;;;2.97;1.80;;;;;;;23.64;49.63;99376.94;7001466;28;20243;-78
2022/07/07 14:32:48;;;;;;;2.23;1.60;;;;;;;23.28;50.00;99356.00;7001852;28;20370;-79
2022/07/07 14:36:10;;;;;;;1.60;1.50;;;;;;;23.12;50.03;99354.28;7002510;28;20241;-79
2022/07/07 14:39:32;;;;;;;2.43;1.90;;;;;;;23.18;49.75;99356.00;7014525;28;20210;-78
2022/07/07 14:42:54;;;;;;;1.80;1.70;;;;;;;22.93;50.76;99374.34;7016149;28;20228;-78
2022/07/07 14:46:16;;;;;;;2.97;1.70;;;;;;;23.38;50.66;99382.72;7019183;28;20270;-78
2022/07/07 14:49:37;;;;;;;4.77;2.90;;;;;;;23.82;50.73;99379.13;7006671;28;20207;-78
2022/07/07 14:52:59;;;;;;;2.30;2.10;;;;;;;23.18;52.60;99378.00;7007515;28;20281;-78
2022/07/07 14:56:22;;;;;;;2.00;1.90;;;;;;;23.29;52.80;99385.19;7007467;28;20206;-78
2022/07/07 14:59:44;;;;;;;2.47;2.27;;;;;;;23.44;52.88;99376.13;7006579;28;20231;-78
2022/07/07 15:03:05;;;;;;;3.97;2.07;;;;;;;23.38;53.71;99349.69;7007412;28;20253;-78
2022/07/07 15:06:27;;;;;;;2.80;2.50;;;;;;;23.46;53.17;99382.16;7007549;28;20567;-78
2022/07/07 15:09:49;;;;;;;2.10;2.00;;;;;;;23.31;53.97;99388.47;7006005;28;20206;-78
2022/07/07 15:13:14;;;;;;;1.80;1.70;;;;;;;23.56;52.79;99383.00;7007441;28;20234;-78
2022/07/07 15:16:35;;;;;;;1.90;1.77;;;;;;;23.37;52.82;99387.38;7007379;28;20215;-78
2022/07/07 15:19:58;;;;;;;3.67;2.20;;;;;;;23.49;53.04;99376.13;7006038;28;20818;-78
2022/07/07 15:23:20;;;;;;;2.37;2.20;;;;;;;23.45;52.23;99369.50;7009073;28;20782;-78
2022/07/07 15:26:42;;;;;;;4.40;2.20;;;;;;;23.55;51.93;99386.84;7006250;28;20230;-78
2022/07/07 15:30:06;;;;;;;3.37;2.00;;;;;;;23.87;51.33;99383.81;7005655;28;20205;-78
2022/07/07 15:33:28;;;;;;;3.77;2.27;;;;;;;23.84;50.63;99376.94;7008221;28;20727;-79
2022/07/07 15:36:50;;;;;;;2.20;2.00;;;;;;;23.85;50.52;99383.28;7006453;28;20206;-78
2022/07/07 15:40:11;;;;;;;1.93;1.83;;;;;;;23.61;49.39;99373.91;7028071;28;20228;-79
2022/07/07 15:43:34;;;;;;;2.50;1.80;;;;;;;23.83;50.04;99379.97;7034815;28;20221;-79
2022/07/07 15:46:57;;;;;;;2.50;1.60;;;;;;;24.37;48.82;99361.72;7024917;28;20445;-79
2022/07/07 15:50:18;;;;;;;2.13;1.50;;;;;;;24.48;47.74;99366.09;7007014;28;20310;-79
2022/07/07 15:53:40;;;;;;;1.73;1.63;;;;;;;24.81;47.55;99384.72;7018600;28;20220;-78
2022/07/07 15:57:01;;;;;;;1.90;1.80;;;;;;;24.66;46.92;99385.59;7032996;28;20233;-77